This is the latest recevied weather packets stored in our database for station/object DL7KST-13. If no packets are shown the sender has not sent any weather packets the latest 10 day(s).
| Time | Temp. | Humidity | Pressure | Rain* | Wind** | Luminosity | Snow |
|---|---|---|---|---|---|---|---|
| 1777787388 | 15° C | 54% | 1004.1 hPa | 0 mm | 0 m/s | - | - |
| 1777786183 | 12.22° C | 58% | 1004 hPa | 0 mm | 0.89 m/s, 87° | - | - |
| 1777784979 | 11.11° C | 63% | 1003.8 hPa | 0 mm | 0.45 m/s, 1° | - | - |
| 1777783775 | 8.89° C | 70% | 1004.1 hPa | 0 mm | 0.45 m/s, 76° | - | - |
| 1777782568 | 7.78° C | 72% | 1004 hPa | 0 mm | 0.45 m/s, 104° | - | - |
| 1777781363 | 7.78° C | 71% | 1004.2 hPa | 0 mm | 0 m/s | - | - |
| 1777780159 | 7.78° C | 75% | 1004.3 hPa | 0 mm | 0.45 m/s, 50° | - | - |
| 1777778953 | 7.78° C | 74% | 1004.3 hPa | 0 mm | 0 m/s | - | - |
| 1777777748 | 8.33° C | 75% | 1004.2 hPa | 0 mm | 0 m/s | - | - |
| 1777776544 | 8.89° C | 72% | 1004.4 hPa | 0 mm | 0.45 m/s, 65° | - | - |
| 1777775339 | 8.33° C | 74% | 1004.4 hPa | 0 mm | 0 m/s | - | - |
| 1777774135 | 8.89° C | 73% | 1004.5 hPa | 0 mm | 0.45 m/s, 80° | - | - |
| 1777772928 | 8.89° C | 75% | 1004.5 hPa | 0 mm | 0 m/s | - | - |
| 1777771724 | 8.89° C | 76% | 1004.8 hPa | 0 mm | 0.45 m/s, 52° | - | - |
| 1777770518 | 8.89° C | 78% | 1004.8 hPa | 0 mm | 0.45 m/s, 56° | - | - |
| 1777768108 | 8.33° C | 76% | 1005.1 hPa | 0 mm | 0.45 m/s, 44° | - | - |
| 1777766904 | 8.33° C | 79% | 1005.2 hPa | 0 mm | 0.45 m/s, 60° | - | - |
| 1777765698 | 8.33° C | 77% | 1005.3 hPa | 0 mm | 0.89 m/s, 79° | - | - |
| 1777764493 | 8.89° C | 76% | 1005.4 hPa | 0 mm | 0.45 m/s, 82° | - | - |
| 1777763289 | 8.89° C | 78% | 1005.7 hPa | 0 mm | 0.45 m/s, 76° | - | - |
| 1777762083 | 8.89° C | 75% | 1005.8 hPa | 0 mm | 0.45 m/s, 119° | - | - |
| 1777760878 | 9.44° C | 73% | 1005.9 hPa | 0 mm | 0.45 m/s, 54° | - | - |
| 1777759709 | 10° C | 73% | 1005.9 hPa | 0 mm | 0.45 m/s, 48° | - | - |
| 1777759672 | 10° C | 73% | 1005.9 hPa | 0 mm | 0.45 m/s, 48° | - | - |
| 1777758468 | 10° C | 71% | 1006 hPa | 0 mm | 0.45 m/s, 119° | - | - |
* Rain latest hour (hover to see other rain measurements)
** Current wind speed in m/s (hover to see current wind gust speed)